ESDF/RNB METAR and TAF weather

Enter ICAO airport designator
Station Type Date Time Source
ESDF METAR 2018/09/21 23:20 UTC NOAA

ESDF 212320Z AUTO 22010KT 9999 NCD 11/08 Q1001


Station Type Date Time Source
ESDF Decoded METAR 2018/09/21 23:20 UTC NOAA

Ronneby, Sweden (ESDF) 56-16N 015-17E 74M
Sep 21, 2018 - 07:20 PM EDT / 2018.09.21 2320 UTC
Wind: from the SW (220 degrees) at 12 MPH (10 KT):0
Visibility: greater than 7 mile(s):0
Temperature: 51 F (11 C)
Dew Point: 46 F (8 C)
Relative Humidity: 81%
Pressure (altimeter): 29.56 in. Hg (1001 hPa)
ob: ESDF 212320Z AUTO 22010KT 9999 NCD 11/08 Q1001
cycle: 23

Station Type Date Time Source
ESDF TAF 2018/05/29 12:27 UTC NOAA

TAF TAF ESDF 291425Z 2912/2924 07008KT CAVOK
RMK MIL


Example: see airport list